Time;durP1;ratioP1;P1;durP2;ratioP2;P2;SDS_P1;SDS_P2;PMS_P1;PMS_P2;Temp;Humidity;BMP_temperature;BMP_pressure;BME280_temperature;BME280_humidity;BME280_pressure;Samples;Min_cycle;Max_cycle;Signal;HPM_P1;HPM_P2
2021/06/17 00:00:18;;;;;;;26.00;14.10;;;;;6.40;101635.00;;;;4989459;28;20109;-72
2021/06/17 00:02:46;;;;;;;25.05;13.52;;;;;6.40;101659.00;;;;4990000;28;20117;-71
2021/06/17 00:05:15;;;;;;;27.88;14.02;;;;;6.40;101646.00;;;;4989615;28;20030;-71
2021/06/17 00:07:43;;;;;;;32.42;14.77;;;;;6.40;101629.00;;;;4989985;28;20030;-71
2021/06/17 00:10:24;;;;;;;28.95;14.15;;;;;6.40;101654.00;;;;4989507;28;20030;-72
2021/06/17 00:12:52;;;;;;;30.15;13.63;;;;;6.40;101648.00;;;;4989296;28;20037;-72
2021/06/17 00:15:20;;;;;;;26.92;13.15;;;;;6.40;101650.00;;;;4989466;28;20084;-72
2021/06/17 00:17:47;;;;;;;28.08;13.85;;;;;6.40;101664.00;;;;4989508;28;20038;-71
2021/06/17 00:20:14;;;;;;;31.42;14.35;;;;;6.50;101648.00;;;;4989268;28;20034;-73
2021/06/17 00:22:41;;;;;;;28.02;13.40;;;;;6.50;101664.00;;;;4989324;28;20087;-73
2021/06/17 00:25:08;;;;;;;30.00;14.05;;;;;6.50;101631.00;;;;4987494;28;20034;-73
2021/06/17 00:27:35;;;;;;;29.05;13.48;;;;;6.60;101638.00;;;;4988860;28;20477;-73
2021/06/17 00:30:02;;;;;;;32.58;13.38;;;;;6.60;101656.00;;;;4989141;28;20054;-73
2021/06/17 00:32:29;;;;;;;24.60;12.63;;;;;6.60;101656.00;;;;4989565;28;20022;-72
2021/06/17 00:34:55;;;;;;;31.85;11.90;;;;;6.70;101667.00;;;;4988375;28;20517;-73
2021/06/17 00:37:22;;;;;;;24.45;11.40;;;;;6.70;101662.00;;;;4988441;28;20037;-73
2021/06/17 00:39:49;;;;;;;22.55;11.55;;;;;6.70;101651.00;;;;4986876;28;20877;-73
2021/06/17 00:42:16;;;;;;;22.52;12.27;;;;;6.70;101670.00;;;;4988544;28;20038;-73
2021/06/17 00:44:42;;;;;;;26.38;10.63;;;;;6.80;101660.00;;;;4989007;28;20089;-73
2021/06/17 00:47:09;;;;;;;26.20;11.07;;;;;6.90;101664.00;;;;4988500;28;20482;-73
2021/06/17 00:49:36;;;;;;;24.17;11.07;;;;;6.90;101655.00;;;;4988673;28;20042;-73
2021/06/17 00:52:06;;;;;;;30.02;9.75;;;;;7.00;101655.00;;;;4988657;28;20041;-73
2021/06/17 00:54:34;;;;;;;25.27;9.57;;;;;7.10;101664.00;;;;4988701;28;20041;-74
2021/06/17 00:57:02;;;;;;;23.08;10.80;;;;;7.10;101656.00;;;;4989019;28;20033;-73
2021/06/17 00:59:29;;;;;;;20.50;9.20;;;;;7.10;101647.00;;;;4988768;28;20045;-72
2021/06/17 01:01:56;;;;;;;20.73;9.68;;;;;7.10;101649.00;;;;4989177;28;20045;-73
2021/06/17 01:04:24;;;;;;;20.70;8.73;;;;;7.10;101662.00;;;;4987867;28;20030;-73
2021/06/17 01:06:52;;;;;;;21.80;8.13;;;;;7.10;101663.00;;;;4988273;28;20031;-73
2021/06/17 01:09:42;;;;;;;20.17;9.05;;;;;7.10;101665.00;;;;4988270;28;20553;-73
2021/06/17 01:12:41;;;;;;;16.35;7.30;;;;;7.10;101659.00;;;;4988202;28;20022;-73
2021/06/17 01:15:16;;;;;;;16.88;6.82;;;;;7.20;101653.00;;;;4988508;28;20033;-73
2021/06/17 01:17:48;;;;;;;19.08;7.05;;;;;7.30;101652.00;;;;4988563;28;20425;-73
2021/06/17 01:20:24;;;;;;;13.35;6.63;;;;;7.30;101662.00;;;;4987903;28;20026;-73
2021/06/17 01:23:22;;;;;;;23.77;6.72;;;;;7.30;101648.00;;;;4988278;28;20061;-74
2021/06/17 01:26:25;;;;;;;20.73;6.35;;;;;7.30;101678.00;;;;4977985;28;20556;-73
2021/06/17 01:28:55;;;;;;;15.07;5.72;;;;;7.40;101663.00;;;;4987961;28;20034;-73
2021/06/17 01:31:32;;;;;;;15.85;5.90;;;;;7.40;101617.00;;;;4987798;28;20054;-72
2021/06/17 01:34:00;;;;;;;17.52;5.57;;;;;7.40;101643.00;;;;4987984;28;20029;-72
2021/06/17 01:36:34;;;;;;;16.30;5.50;;;;;7.40;101646.00;;;;4987562;28;20549;-72
2021/06/17 01:39:06;;;;;;;14.40;5.60;;;;;7.40;101662.00;;;;4988440;28;20046;-74
2021/06/17 01:41:40;;;;;;;11.77;4.90;;;;;7.40;101656.00;;;;4987594;28;20042;-74
2021/06/17 01:44:09;;;;;;;15.73;5.50;;;;;7.40;101652.00;;;;4987770;28;20033;-73
2021/06/17 01:46:36;;;;;;;18.80;5.53;;;;;7.40;101667.00;;;;4987509;28;20448;-73
2021/06/17 01:49:04;;;;;;;20.90;6.13;;;;;7.40;101670.00;;;;4987935;28;20477;-73
2021/06/17 01:51:32;;;;;;;13.20;5.07;;;;;7.40;101675.00;;;;4987735;28;20022;-72
2021/06/17 01:54:00;;;;;;;16.13;5.05;;;;;7.40;101650.00;;;;4986871;28;20405;-73
2021/06/17 01:56:27;;;;;;;24.83;7.63;;;;;7.40;101665.00;;;;4987216;28;20026;-72
2021/06/17 01:58:56;;;;;;;18.13;7.70;;;;;7.40;101654.00;;;;4987178;28;20080;-72
2021/06/17 02:01:29;;;;;;;19.15;8.07;;;;;7.40;101673.00;;;;4987630;28;20038;-72
2021/06/17 02:03:58;;;;;;;23.23;8.52;;;;;7.40;101665.00;;;;4987752;28;20041;-73
2021/06/17 02:06:27;;;;;;;30.98;8.57;;;;;7.40;101657.00;;;;4987685;28;20409;-72
2021/06/17 02:08:55;;;;;;;23.00;9.48;;;;;7.50;101682.00;;;;4987745;28;20053;-72
2021/06/17 02:11:24;;;;;;;26.88;10.68;;;;;7.50;101673.00;;;;4987324;28;20042;-73
2021/06/17 02:13:53;;;;;;;34.63;10.10;;;;;7.50;101684.00;;;;4987813;28;20026;-72
2021/06/17 02:16:21;;;;;;;19.55;8.23;;;;;7.50;101660.00;;;;4987905;28;20040;-72
2021/06/17 02:18:51;;;;;;;19.95;8.30;;;;;7.50;101669.00;;;;4987427;28;20022;-72
2021/06/17 02:21:18;;;;;;;20.77;10.32;;;;;7.50;101663.00;;;;4987236;28;20022;-71
2021/06/17 02:23:55;;;;;;;25.80;11.85;;;;;7.50;101677.00;;;;4987359;28;20132;-72
2021/06/17 02:26:22;;;;;;;21.90;10.18;;;;;7.40;101684.00;;;;4987537;28;20084;-72
2021/06/17 02:28:52;;;;;;;27.65;9.15;;;;;7.40;101673.00;;;;4987417;28;20402;-72
2021/06/17 02:31:26;;;;;;;27.00;12.20;;;;;7.50;101673.00;;;;4987738;28;20073;-72
2021/06/17 02:33:53;;;;;;;18.85;9.98;;;;;7.50;101658.00;;;;4987577;28;20131;-72
2021/06/17 02:36:25;;;;;;;23.67;10.10;;;;;7.50;101675.00;;;;4986755;28;20387;-72
2021/06/17 02:38:56;;;;;;;21.10;10.50;;;;;7.50;101675.00;;;;4988261;28;20524;-73
2021/06/17 02:41:24;;;;;;;20.73;8.85;;;;;7.60;101683.00;;;;4987295;28;20031;-72
2021/06/17 02:43:55;;;;;;;25.27;8.23;;;;;7.60;101691.00;;;;4987336;28;20096;-73
2021/06/17 02:46:23;;;;;;;21.42;8.88;;;;;7.60;101670.00;;;;4986971;28;20085;-72
2021/06/17 02:48:54;;;;;;;15.05;8.15;;;;;7.60;101665.00;;;;4987280;28;20084;-73
2021/06/17 02:51:21;;;;;;;22.13;8.30;;;;;7.60;101675.00;;;;4987191;28;20025;-73
2021/06/17 02:53:49;;;;;;;19.35;7.72;;;;;7.50;101667.00;;;;4987203;28;20516;-73
2021/06/17 02:56:44;;;;;;;14.63;7.15;;;;;7.50;101651.00;;;;4987546;28;20058;-72
2021/06/17 02:59:20;;;;;;;18.63;7.78;;;;;7.40;101667.00;;;;4986994;28;20509;-72
2021/06/17 03:02:01;;;;;;;15.00;7.75;;;;;7.50;101664.00;;;;4986996;28;20036;-72
2021/06/17 03:04:51;;;;;;;22.45;8.23;;;;;7.50;101658.00;;;;4988964;28;20702;-72
2021/06/17 03:07:26;;;;;;;23.05;8.05;;;;;7.60;101649.00;;;;4990641;28;20113;-72
2021/06/17 03:10:04;;;;;;;23.52;9.00;;;;;7.60;101649.00;;;;4990518;28;20038;-73
2021/06/17 03:12:32;;;;;;;18.15;8.85;;;;;7.70;101645.00;;;;4990618;28;20037;-72
2021/06/17 03:15:02;;;;;;;21.08;9.27;;;;;7.70;101652.00;;;;4990942;28;20034;-73
2021/06/17 03:17:33;;;;;;;26.55;9.95;;;;;7.70;101664.00;;;;4990763;28;20431;-73
2021/06/17 03:20:03;;;;;;;19.38;9.18;;;;;7.80;101658.00;;;;4990274;28;20026;-73
2021/06/17 03:22:30;;;;;;;24.08;10.30;;;;;7.80;101649.00;;;;4990373;28;20034;-72
2021/06/17 03:25:01;;;;;;;25.25;10.23;;;;;7.80;101658.00;;;;4990289;28;20035;-72
2021/06/17 03:27:29;;;;;;;18.77;9.70;;;;;7.80;101648.00;;;;4990673;28;20135;-73
2021/06/17 03:29:57;;;;;;;22.05;8.82;;;;;7.80;101653.00;;;;4990835;28;20520;-72
2021/06/17 03:32:26;;;;;;;21.63;8.95;;;;;7.90;101653.00;;;;4990259;28;20033;-72
2021/06/17 03:34:54;;;;;;;25.55;10.82;;;;;7.90;101637.00;;;;4990184;28;20524;-72
2021/06/17 03:37:22;;;;;;;22.58;8.90;;;;;7.90;101653.00;;;;4990675;28;20046;-72
2021/06/17 03:39:51;;;;;;;24.30;9.52;;;;;7.90;101650.00;;;;4990219;28;20060;-71
2021/06/17 03:42:19;;;;;;;27.85;9.88;;;;;8.00;101649.00;;;;4989818;28;20033;-72
2021/06/17 03:44:48;;;;;;;22.13;8.82;;;;;8.00;101655.00;;;;5005190;28;20034;-73
2021/06/17 03:47:17;;;;;;;21.77;9.50;;;;;8.10;101668.00;;;;4989604;28;20516;-73
2021/06/17 03:49:44;;;;;;;22.55;8.30;;;;;8.10;101652.00;;;;4990078;28;20076;-72
2021/06/17 03:52:15;;;;;;;22.95;8.52;;;;;8.10;101656.00;;;;4989691;28;20033;-72
2021/06/17 03:54:46;;;;;;;17.87;8.37;;;;;8.20;101635.00;;;;4990209;28;20069;-72
2021/06/17 03:57:12;;;;;;;17.95;8.77;;;;;8.10;101659.00;;;;4990372;28;20855;-74
2021/06/17 03:59:41;;;;;;;19.92;8.45;;;;;8.20;101635.00;;;;4989346;28;20030;-72
2021/06/17 04:02:09;;;;;;;20.20;8.45;;;;;8.20;101643.00;;;;4990179;28;20096;-72
2021/06/17 04:04:36;;;;;;;19.08;8.10;;;;;8.20;101657.00;;;;4989813;28;20038;-73
2021/06/17 04:07:07;;;;;;;20.52;8.55;;;;;8.30;101649.00;;;;4989757;28;20069;-72
2021/06/17 04:09:36;;;;;;;26.60;9.02;;;;;8.30;101666.00;;;;4989382;28;20026;-73
2021/06/17 04:12:15;;;;;;;15.77;8.13;;;;;8.30;101653.00;;;;4989517;28;20034;-73
2021/06/17 04:14:44;;;;;;;19.05;9.07;;;;;8.30;101676.00;;;;4989518;28;20026;-72
2021/06/17 04:17:16;;;;;;;20.52;8.95;;;;;8.30;101676.00;;;;4988533;28;20505;-73
2021/06/17 04:19:45;;;;;;;17.58;7.75;;;;;8.20;101652.00;;;;4989358;28;20027;-73
2021/06/17 04:22:14;;;;;;;14.05;6.55;;;;;8.10;101654.00;;;;4990096;28;20108;-73
2021/06/17 04:24:50;;;;;;;16.45;6.75;;;;;8.10;101664.00;;;;4988890;28;20034;-73
2021/06/17 04:27:20;;;;;;;20.10;6.53;;;;;8.10;101644.00;;;;4989049;28;20035;-72
2021/06/17 04:29:48;;;;;;;16.45;6.53;;;;;8.10;101652.00;;;;4989172;28;20133;-72
2021/06/17 04:32:15;;;;;;;21.25;7.80;;;;;8.00;101638.00;;;;5004071;28;20030;-73
2021/06/17 04:34:44;;;;;;;22.85;7.70;;;;;8.00;101651.00;;;;4989122;28;20030;-73
2021/06/17 04:37:14;;;;;;;16.88;7.47;;;;;8.10;101663.00;;;;4988826;28;20034;-73
2021/06/17 04:39:42;;;;;;;16.27;7.15;;;;;8.10;101670.00;;;;4988883;28;20418;-72
2021/06/17 04:42:10;;;;;;;19.20;8.23;;;;;8.10;101644.00;;;;4989512;28;20029;-73
2021/06/17 04:44:44;;;;;;;20.10;7.82;;;;;8.10;101655.00;;;;4989186;28;20027;-72
2021/06/17 04:47:14;;;;;;;17.80;7.88;;;;;8.20;101652.00;;;;4989320;28;20034;-72
2021/06/17 04:49:41;;;;;;;15.07;8.23;;;;;8.20;101663.00;;;;4989587;28;20085;-72
2021/06/17 04:52:15;;;;;;;29.05;9.75;;;;;8.20;101659.00;;;;4989358;28;20054;-72
2021/06/17 04:54:42;;;;;;;21.15;9.45;;;;;8.20;101662.00;;;;4988758;28;20061;-73
2021/06/17 04:57:08;;;;;;;29.85;12.10;;;;;8.20;101663.00;;;;4989430;28;20026;-72
2021/06/17 04:59:35;;;;;;;21.13;9.77;;;;;8.20;101649.00;;;;4988418;28;20485;-74
2021/06/17 05:02:02;;;;;;;24.20;10.52;;;;;8.30;101671.00;;;;4988556;28;20030;-72
2021/06/17 05:04:28;;;;;;;21.17;9.70;;;;;8.40;101669.00;;;;4988573;28;20132;-72
2021/06/17 05:07:25;;;;;;;19.23;8.60;;;;;8.40;101647.00;;;;4988693;28;20041;-73
2021/06/17 05:12:27;;;;;;;14.20;8.55;;;;;8.30;101654.00;;;;4988696;28;20041;-72
2021/06/17 05:14:54;;;;;;;19.60;8.38;;;;;8.40;101654.00;;;;4988260;28;20038;-73
2021/06/17 05:17:21;;;;;;;14.77;8.65;;;;;8.30;101656.00;;;;4988665;28;20406;-72
2021/06/17 05:19:48;;;;;;;20.55;8.20;;;;;8.30;101668.00;;;;4988652;28;20066;-72
2021/06/17 05:22:15;;;;;;;16.73;9.15;;;;;8.30;101651.00;;;;4988091;28;20026;-73
2021/06/17 05:24:42;;;;;;;19.73;9.02;;;;;8.30;101652.00;;;;4987988;28;20039;-73
2021/06/17 05:27:08;;;;;;;24.15;9.35;;;;;8.30;101663.00;;;;4988005;28;20034;-72
2021/06/17 05:29:35;;;;;;;24.80;10.27;;;;;8.30;101670.00;;;;4988020;28;20058;-72
2021/06/17 05:32:01;;;;;;;21.38;10.30;;;;;8.40;101650.00;;;;4988467;28;20454;-72
2021/06/17 05:34:28;;;;;;;25.30;10.43;;;;;8.30;101667.00;;;;4988135;28;20383;-72
2021/06/17 05:36:54;;;;;;;20.95;9.85;;;;;8.30;101643.00;;;;4987918;28;20022;-72
2021/06/17 05:39:21;;;;;;;26.10;11.60;;;;;8.20;101650.00;;;;4988251;28;20494;-73
2021/06/17 05:41:47;;;;;;;19.13;10.23;;;;;8.20;101651.00;;;;4987825;28;20093;-73
2021/06/17 05:44:14;;;;;;;20.15;10.18;;;;;8.20;101650.00;;;;4987779;28;20022;-72
2021/06/17 05:46:41;;;;;;;21.50;11.25;;;;;8.20;101634.00;;;;4988078;28;20044;-73
2021/06/17 05:49:08;;;;;;;21.92;9.95;;;;;8.20;101655.00;;;;4987389;28;21124;-72
2021/06/17 05:51:35;;;;;;;16.45;9.43;;;;;8.20;101643.00;;;;4987688;28;20030;-72
2021/06/17 05:54:01;;;;;;;22.70;10.93;;;;;8.10;101643.00;;;;4988290;28;20496;-72
2021/06/17 05:56:28;;;;;;;26.13;12.20;;;;;8.10;101633.00;;;;4986203;28;20034;-73
2021/06/17 05:58:55;;;;;;;28.52;14.13;;;;;8.10;101637.00;;;;4987677;28;20026;-72
2021/06/17 06:01:22;;;;;;;24.13;11.32;;;;;8.00;101641.00;;;;4987681;28;20398;-72
2021/06/17 06:03:49;;;;;;;24.95;11.52;;;;;7.90;101646.00;;;;4988047;28;20077;-72
2021/06/17 06:06:15;;;;;;;26.13;11.75;;;;;7.90;101628.00;;;;4988363;28;20042;-72
2021/06/17 06:08:42;;;;;;;27.17;11.32;;;;;7.90;101631.00;;;;4987546;28;20033;-72
2021/06/17 06:11:08;;;;;;;22.88;13.15;;;;;7.90;101628.00;;;;4987259;28;20034;-71
2021/06/17 06:13:35;;;;;;;26.63;13.65;;;;;7.90;101634.00;;;;4987230;28;20030;-72
2021/06/17 06:16:01;;;;;;;31.15;15.02;;;;;7.90;101627.00;;;;4987559;28;20117;-72
2021/06/17 06:18:30;;;;;;;33.28;16.60;;;;;7.90;101629.00;;;;4987736;28;20033;-72
2021/06/17 06:20:58;;;;;;;34.95;17.33;;;;;7.90;101624.00;;;;4987034;28;20410;-72
2021/06/17 06:23:26;;;;;;;34.45;17.58;;;;;7.80;101622.00;;;;4987135;28;20034;-72
2021/06/17 06:25:53;;;;;;;30.88;16.50;;;;;7.80;101614.00;;;;4987566;28;20058;-73
2021/06/17 06:28:22;;;;;;;25.35;17.73;;;;;7.80;101621.00;;;;4987584;28;20490;-71
2021/06/17 06:30:50;;;;;;;37.72;17.85;;;;;7.70;101605.00;;;;4987502;28;20469;-71
2021/06/17 06:33:18;;;;;;;26.25;15.93;;;;;7.80;101632.00;;;;4987499;28;20031;-73
2021/06/17 06:35:45;;;;;;;26.55;14.20;;;;;7.80;101620.00;;;;4986941;28;20374;-72
2021/06/17 06:38:12;;;;;;;26.90;11.77;;;;;7.80;101618.00;;;;4987051;28;20026;-73
2021/06/17 06:40:39;;;;;;;26.73;12.98;;;;;7.80;101617.00;;;;4990548;28;20027;-73
2021/06/17 06:43:08;;;;;;;26.75;12.50;;;;;7.80;101622.00;;;;4991208;28;20038;-73
2021/06/17 06:45:35;;;;;;;28.02;13.63;;;;;7.80;101618.00;;;;4991089;28;20035;-72
2021/06/17 06:48:02;;;;;;;30.33;14.40;;;;;7.80;101608.00;;;;4991349;28;20034;-72
2021/06/17 06:50:29;;;;;;;28.75;13.13;;;;;7.90;101626.00;;;;4991422;28;20030;-73
2021/06/17 06:52:55;;;;;;;28.10;15.43;;;;;7.90;101629.00;;;;4990887;28;20030;-73
2021/06/17 06:55:22;;;;;;;24.63;13.43;;;;;7.80;101637.00;;;;4991315;28;20026;-72
2021/06/17 06:57:49;;;;;;;22.48;14.07;;;;;7.80;101623.00;;;;4991764;28;20036;-72
2021/06/17 07:00:17;;;;;;;21.73;13.43;;;;;7.80;101640.00;;;;4990812;28;20072;-72
2021/06/17 07:02:44;;;;;;;27.15;15.73;;;;;7.80;101629.00;;;;4991060;28;20034;-72
2021/06/17 07:05:11;;;;;;;26.83;15.00;;;;;7.80;101621.00;;;;4990765;28;20026;-72
2021/06/17 07:07:37;;;;;;;27.25;15.80;;;;;7.80;101620.00;;;;4990652;28;20030;-72
2021/06/17 07:10:07;;;;;;;25.75;14.80;;;;;7.80;101616.00;;;;4990909;28;20034;-72
2021/06/17 07:12:34;;;;;;;22.55;14.20;;;;;7.80;101614.00;;;;4991034;28;20026;-72
2021/06/17 07:15:01;;;;;;;21.17;13.65;;;;;7.90;101629.00;;;;4990991;28;20030;-71
2021/06/17 07:17:28;;;;;;;25.63;15.55;;;;;7.80;101612.00;;;;4990987;28;20030;-73
2021/06/17 07:19:55;;;;;;;31.90;17.40;;;;;7.70;101622.00;;;;4990129;28;20034;-72
2021/06/17 07:22:23;;;;;;;25.63;16.05;;;;;7.60;101614.00;;;;4990778;28;20030;-72
2021/06/17 07:24:49;;;;;;;31.30;16.35;;;;;7.60;101621.00;;;;4991113;28;20390;-72
2021/06/17 07:27:16;;;;;;;23.42;15.48;;;;;7.60;101613.00;;;;4990385;28;20486;-72
2021/06/17 07:29:42;;;;;;;39.03;19.05;;;;;7.60;101620.00;;;;4990014;28;20386;-72
2021/06/17 07:32:09;;;;;;;27.20;18.40;;;;;7.50;101613.00;;;;4990416;28;20496;-72
2021/06/17 07:34:36;;;;;;;32.95;19.13;;;;;7.30;101613.00;;;;4990606;28;20030;-72
2021/06/17 07:37:04;;;;;;;31.63;19.63;;;;;7.20;101615.00;;;;4990395;28;20039;-72
2021/06/17 07:39:30;;;;;;;31.88;19.45;;;;;7.20;101622.00;;;;4990119;28;20043;-71
2021/06/17 07:41:58;;;;;;;37.42;20.65;;;;;7.10;101607.00;;;;4990101;28;20406;-72
2021/06/17 07:44:24;;;;;;;38.20;20.38;;;;;7.00;101609.00;;;;4990512;28;20022;-71
2021/06/17 07:46:51;;;;;;;35.17;21.27;;;;;7.00;101591.00;;;;4990366;28;20401;-72
2021/06/17 07:49:17;;;;;;;43.75;23.73;;;;;7.00;101594.00;;;;4989940;28;20152;-73
2021/06/17 07:51:44;;;;;;;41.42;24.70;;;;;7.00;101581.00;;;;4989024;28;20034;-72
2021/06/17 07:54:10;;;;;;;42.85;26.73;;;;;7.00;101583.00;;;;4990244;28;20080;-72
2021/06/17 07:56:37;;;;;;;45.75;26.77;;;;;6.90;101582.00;;;;4989904;28;20038;-72
2021/06/17 07:59:03;;;;;;;41.47;23.20;;;;;6.90;101575.00;;;;4989802;28;20022;-72
2021/06/17 08:01:30;;;;;;;44.80;24.17;;;;;6.90;101591.00;;;;4989504;28;20154;-72
2021/06/17 08:03:56;;;;;;;42.40;23.50;;;;;6.90;101594.00;;;;4989882;28;20042;-72
2021/06/17 08:06:23;;;;;;;48.47;24.80;;;;;6.90;101595.00;;;;4989667;28;20026;-72
2021/06/17 08:08:49;;;;;;;49.33;24.92;;;;;6.90;101597.00;;;;4989599;28;20042;-71
2021/06/17 08:11:16;;;;;;;40.13;21.95;;;;;6.90;101600.00;;;;4989822;28;20030;-72
2021/06/17 08:13:42;;;;;;;57.90;31.90;;;;;6.90;101615.00;;;;4989875;28;20038;-72
2021/06/17 08:16:09;;;;;;;55.60;28.60;;;;;7.00;101583.00;;;;4989401;28;20038;-73
2021/06/17 08:18:35;;;;;;;57.65;30.80;;;;;7.00;101598.00;;;;4989591;28;20022;-72
2021/06/17 08:21:02;;;;;;;71.80;34.95;;;;;7.00;101618.00;;;;4989485;28;20031;-72
2021/06/17 08:23:29;;;;;;;72.53;32.08;;;;;7.00;101582.00;;;;4989390;28;20039;-72
2021/06/17 08:25:55;;;;;;;72.68;32.13;;;;;7.10;101617.00;;;;4989389;28;20034;-72
2021/06/17 08:28:26;;;;;;;56.35;27.85;;;;;7.10;101583.00;;;;4989532;28;20042;-72
2021/06/17 08:30:53;;;;;;;46.10;25.25;;;;;7.10;101619.00;;;;4988732;28;20395;-72
2021/06/17 08:33:21;;;;;;;41.92;24.45;;;;;7.20;101588.00;;;;4989528;28;20068;-72
2021/06/17 08:35:51;;;;;;;36.47;22.67;;;;;7.20;101612.00;;;;4989089;28;20030;-73
2021/06/17 08:38:19;;;;;;;41.95;22.52;;;;;7.20;101589.00;;;;4989973;28;20030;-71
2021/06/17 08:40:46;;;;;;;41.25;22.83;;;;;7.20;101593.00;;;;4989232;28;20399;-72
2021/06/17 08:43:13;;;;;;;34.45;20.73;;;;;7.10;101605.00;;;;4988913;28;20474;-72
2021/06/17 08:45:40;;;;;;;38.08;21.88;;;;;7.10;101609.00;;;;4988862;28;20034;-72
2021/06/17 08:48:07;;;;;;;33.03;21.70;;;;;7.10;101599.00;;;;4989000;28;20033;-73
2021/06/17 08:50:34;;;;;;;32.22;22.45;;;;;7.00;101603.00;;;;4988842;28;20080;-72
2021/06/17 08:53:00;;;;;;;37.00;23.10;;;;;7.10;101595.00;;;;4988500;28;20647;-72
2021/06/17 08:55:29;;;;;;;35.40;21.70;;;;;7.10;101597.00;;;;4989044;28;20036;-73
2021/06/17 08:57:58;;;;;;;33.53;20.92;;;;;7.10;101597.00;;;;4988294;28;20517;-71
2021/06/17 09:00:28;;;;;;;36.65;21.60;;;;;7.20;101605.00;;;;4988954;28;20022;-72
2021/06/17 09:03:04;;;;;;;38.20;22.10;;;;;7.20;101601.00;;;;4988840;28;20477;-73
2021/06/17 09:05:34;;;;;;;38.80;22.65;;;;;7.10;101620.00;;;;4988765;28;20049;-72
2021/06/17 09:08:01;;;;;;;32.92;20.73;;;;;7.10;101604.00;;;;4988415;28;20473;-71
2021/06/17 09:10:29;;;;;;;40.10;20.15;;;;;7.10;101617.00;;;;4988599;28;20409;-72
2021/06/17 09:13:01;;;;;;;39.92;20.30;;;;;7.00;101616.00;;;;4988595;28;20063;-71
2021/06/17 09:15:31;;;;;;;36.97;20.27;;;;;7.00;101650.00;;;;4988567;28;20041;-72
2021/06/17 09:18:12;;;;;;;31.33;17.75;;;;;7.10;101639.00;;;;4988409;28;20034;-72
2021/06/17 09:20:52;;;;;;;31.95;19.73;;;;;7.20;101654.00;;;;4988213;28;20406;-72
2021/06/17 09:23:24;;;;;;;31.23;18.35;;;;;7.20;101649.00;;;;4988402;28;20038;-72
2021/06/17 09:25:58;;;;;;;31.95;20.02;;;;;7.20;101654.00;;;;4988072;28;20097;-72
2021/06/17 09:28:27;;;;;;;33.40;20.67;;;;;7.40;101675.00;;;;4988255;28;20026;-72
2021/06/17 09:30:54;;;;;;;26.35;19.40;;;;;7.40;101653.00;;;;4987859;28;20145;-72
2021/06/17 09:33:25;;;;;;;23.70;18.77;;;;;7.40;101656.00;;;;4988437;28;20030;-72
2021/06/17 09:35:57;;;;;;;26.42;18.15;;;;;7.40;101650.00;;;;4988028;28;20057;-72
2021/06/17 09:38:25;;;;;;;33.28;18.33;;;;;7.40;101667.00;;;;4987989;28;20529;-72
2021/06/17 09:40:53;;;;;;;29.85;19.42;;;;;7.40;101668.00;;;;4987702;28;20034;-72
2021/06/17 09:43:28;;;;;;;28.73;20.50;;;;;7.40;101672.00;;;;4987670;28;20521;-71
2021/06/17 09:46:06;;;;;;;35.08;20.92;;;;;7.50;101667.00;;;;4987071;28;20030;-72
2021/06/17 09:48:35;;;;;;;36.45;20.70;;;;;7.60;101687.00;;;;4987892;28;20033;-72
2021/06/17 09:51:21;;;;;;;40.45;23.40;;;;;7.70;101694.00;;;;4987747;28;20104;-72
2021/06/17 09:53:48;;;;;;;37.92;21.85;;;;;7.70;101628.00;;;;4987729;28;20034;-72
2021/06/17 09:56:16;;;;;;;33.25;20.70;;;;;7.70;101677.00;;;;4988424;28;20031;-72
2021/06/17 09:58:44;;;;;;;40.58;21.05;;;;;7.70;101671.00;;;;4987693;28;20445;-71
2021/06/17 10:01:15;;;;;;;33.75;21.10;;;;;7.70;101685.00;;;;4987739;28;20545;-72
2021/06/17 10:03:42;;;;;;;30.80;19.87;;;;;7.70;101669.00;;;;4987705;28;20049;-72
2021/06/17 10:06:19;;;;;;;39.47;20.55;;;;;7.80;101658.00;;;;4987482;28;20795;-71
2021/06/17 10:08:46;;;;;;;38.35;19.63;;;;;7.80;101668.00;;;;4987129;28;20390;-72
2021/06/17 10:11:15;;;;;;;35.35;19.70;;;;;7.70;101674.00;;;;4987590;28;20493;-72
2021/06/17 10:13:42;;;;;;;38.10;20.85;;;;;7.80;101692.00;;;;4967188;28;20046;-71
2021/06/17 10:16:09;;;;;;;39.50;21.80;;;;;7.90;101674.00;;;;4967904;28;20035;-73
2021/06/17 10:18:37;;;;;;;39.25;21.30;;;;;7.90;101682.00;;;;4967840;28;20110;-72
2021/06/17 10:21:04;;;;;;;50.55;27.50;;;;;7.90;101689.00;;;;4967428;28;20083;-71
2021/06/17 10:23:31;;;;;;;43.25;23.15;;;;;7.90;101680.00;;;;4968001;28;20524;-72
2021/06/17 10:26:05;;;;;;;33.85;21.63;;;;;8.00;101683.00;;;;4968997;28;20041;-73
2021/06/17 10:28:45;;;;;;;42.72;22.77;;;;;8.00;101691.00;;;;4967485;28;20038;-71
2021/06/17 10:31:15;;;;;;;33.45;20.33;;;;;8.00;101671.00;;;;4968900;28;20062;-72
2021/06/17 10:33:42;;;;;;;57.72;20.95;;;;;8.00;101680.00;;;;4967218;28;20046;-71
2021/06/17 10:36:23;;;;;;;29.88;19.02;;;;;8.00;101703.00;;;;4967381;28;20027;-71
2021/06/17 10:39:11;;;;;;;31.60;18.15;;;;;8.00;101695.00;;;;4968126;28;20039;-71
2021/06/17 10:42:04;;;;;;;38.47;18.00;;;;;8.00;101693.00;;;;4966212;28;20698;-73
2021/06/17 10:44:37;;;;;;;56.22;18.42;;;;;8.10;101700.00;;;;4967158;28;20109;-72
2021/06/17 10:47:04;;;;;;;36.38;18.27;;;;;8.10;101713.00;;;;4967431;28;20069;-72
2021/06/17 10:49:52;;;;;;;36.63;18.27;;;;;8.10;101711.00;;;;4967383;28;20456;-72
2021/06/17 10:52:38;;;;;;;34.75;18.45;;;;;8.20;101703.00;;;;4967803;28;20026;-72
2021/06/17 10:55:08;;;;;;;46.17;20.27;;;;;8.30;101698.00;;;;4968327;28;20035;-72
2021/06/17 10:57:44;;;;;;;42.88;18.35;;;;;8.30;101715.00;;;;4968057;28;20033;-72
2021/06/17 11:00:31;;;;;;;42.58;16.35;;;;;8.40;101712.00;;;;4967703;28;20027;-72
2021/06/17 11:03:06;;;;;;;37.75;17.58;;;;;8.40;101711.00;;;;4963824;28;20042;-72
2021/06/17 11:05:34;;;;;;;28.00;15.32;;;;;8.50;101698.00;;;;4967689;28;20026;-71
2021/06/17 11:08:21;;;;;;;50.08;16.60;;;;;8.50;101706.00;;;;4967668;28;20027;-71
2021/06/17 11:10:48;;;;;;;45.08;17.58;;;;;8.70;101693.00;;;;4967390;28;20049;-71
2021/06/17 11:13:39;;;;;;;29.30;15.85;;;;;8.90;101693.00;;;;4967043;28;20465;-71
2021/06/17 11:16:17;;;;;;;43.28;24.75;;;;;9.00;101684.00;;;;4967392;28;20536;-72
2021/06/17 11:18:54;;;;;;;32.83;16.45;;;;;9.00;101686.00;;;;4967547;28;20027;-72
2021/06/17 11:21:25;;;;;;;40.97;15.50;;;;;9.00;101700.00;;;;4967498;28;20418;-72
2021/06/17 11:24:13;;;;;;;43.15;18.15;;;;;9.20;101694.00;;;;4967751;28;20039;-72
2021/06/17 11:26:48;;;;;;;36.25;14.65;;;;;9.20;101699.00;;;;4966949;28;20798;-73
2021/06/17 11:29:20;;;;;;;29.55;14.77;;;;;9.30;101697.00;;;;4971063;28;20403;-73
2021/06/17 11:31:47;;;;;;;23.30;14.32;;;;;9.40;101711.00;;;;4970858;28;20212;-72
2021/06/17 11:34:36;;;;;;;35.38;13.80;;;;;9.40;101710.00;;;;4970923;28;20038;-73
2021/06/17 11:37:14;;;;;;;33.67;13.63;;;;;9.40;101722.00;;;;4970875;28;20035;-73
2021/06/17 11:39:40;;;;;;;31.70;14.02;;;;;9.30;101704.00;;;;4970495;28;20030;-72
2021/06/17 11:42:17;;;;;;;33.08;13.27;;;;;9.30;101715.00;;;;4970559;28;20117;-73
2021/06/17 11:44:45;;;;;;;26.08;12.55;;;;;9.20;101711.00;;;;4970886;28;20455;-73
2021/06/17 11:47:15;;;;;;;37.47;14.77;;;;;9.30;101694.00;;;;4970779;28;20450;-73
2021/06/17 11:49:47;;;;;;;29.98;12.80;;;;;9.30;101715.00;;;;4970587;28;20037;-72
2021/06/17 11:52:16;;;;;;;27.33;11.07;;;;;9.30;101709.00;;;;4970269;28;20035;-73
2021/06/17 11:54:44;;;;;;;31.40;12.77;;;;;9.40;101714.00;;;;4968808;28;20133;-73
2021/06/17 11:57:12;;;;;;;26.08;9.25;;;;;9.50;101692.00;;;;4971218;28;20026;-73
2021/06/17 11:59:49;;;;;;;33.40;10.05;;;;;9.60;101698.00;;;;4970445;28;20665;-73
2021/06/17 12:02:23;;;;;;;18.60;9.45;;;;;9.70;101700.00;;;;4970070;28;20038;-73
2021/06/17 12:04:55;;;;;;;45.58;11.88;;;;;9.80;101715.00;;;;4968955;28;20400;-74
2021/06/17 12:07:28;;;;;;;;;;;;;9.90;101715.00;;;;4970222;28;20141;-72
2021/06/17 12:10:08;;;;;;;20.77;7.93;;;;;10.00;101706.00;;;;4970368;28;19925;-73
2021/06/17 12:12:35;;;;;;;21.77;8.52;;;;;10.30;101709.00;;;;4970083;28;20061;-72
2021/06/17 12:15:03;;;;;;;15.98;7.85;;;;;10.40;101717.00;;;;4970078;28;20090;-73
2021/06/17 12:17:32;;;;;;;23.05;8.65;;;;;10.20;101721.00;;;;4970372;28;20078;-72
2021/06/17 12:20:10;;;;;;;21.95;9.13;;;;;10.20;101714.00;;;;4969903;28;20039;-72